Grandy, NC (27939)

9:10 AM EST on February 28, 2015 (GMT -0500)
OBX-Jack's Place | Change Station
CLOSE
Current Station
Personal Weather Station
Location: Grandy, NC
Elevation: 35 ft
Nearby Weather Stations

Elev 35 ft 36.24 °N, 75.86 °W | Updated 4 minutes ago

Clear
Clear
32.7 °F
Feels Like 27 °F
N
5.8
Wind Variable Wind from NNE

Today
High -- | Low -- °F
--% Chance of Precip.
Yesterday
High -- | Low -- °F
Precip. -- in
6:35 AM 5:57 PM
Waxing Gibbous, 77% visible
Pressure 30.78 in
Visibility 10.0 miles
Clouds Clear
Windchill 27 °F
Dew Point 22 °F
Humidity 65%
Rainfall 0.00 in
Snow Depth Not available.
UV 2 out of 12
Pollen 4.60 out of 12
Air Quality Not available.
Flu Activity Not available.
METAR KONX 281355Z AUTO 01013G17KT 10SM CLR M01/M09 A3078 RMK AO2 T10111090

More Conditions Fewer Conditions

Pressure 30.78 in
Visibility 10.0 miles
Clouds Clear
Windchill 27 °F
Dew Point 22 °F
Humidity 65%
Rainfall 0.00 in
Snow Depth Not available.
UV 2 out of 12
Pollen 4.60 out of 12
Air Quality Not available.
Flu Activity Not available.
METAR KONX 281355Z AUTO 01013G17KT 10SM CLR M01/M09 A3078 RMK AO2 T10111090

More Conditions Fewer Conditions

10-Day Weather Forecast

Almanac

Astronomy

Feb. 28, 2015 Rise Set
Actual Time
Civil Twilight
Nautical Twilight
Astronomical Twilight
Moon
Length of Visible Light
Length of Day
Tomorrow will be .
, % of the Moon is Illuminated

Today's Extremes

State Highs State Lows

Community

WunderPhotos

Upload Photos

1,801,021 photos uploaded!

WunderBlogs® & News

Nearby

Air Quality

  Air Quality AQ Index Pollutant
Not available.

Snow Depth

Station Depth Elevation

Earthquake Activity

City Distance Mag. Time & Date
Minimum magnitude displayed is 2.5.

Coastal Water Temperatures

Place Temperature

Nearby Weather Stations